createdAt,value
2022-10-24T00:09:52.552Z,2352.94169
2022-10-24T00:24:54.869Z,2342.65785
2022-10-24T00:39:56.722Z,2348.81734
2022-10-24T00:54:58.573Z,2357.08054
2022-10-24T01:10:00.442Z,2342.65785
2022-10-24T01:25:02.269Z,2336.53059
2022-10-24T01:40:04.304Z,2316.33586
2022-10-24T01:55:06.148Z,2310.34534
2022-10-24T02:10:07.997Z,2316.33586
2022-10-24T02:25:09.837Z,2591.87673
2022-10-24T02:40:11.860Z,2525.91946
2022-10-24T02:55:13.685Z,2476.89515
2022-10-24T03:10:15.510Z,2423.14699
2022-10-24T03:25:17.370Z,2399.28431
2022-10-24T03:40:19.211Z,2619.74636
2022-10-24T03:55:21.032Z,2731.90674
2022-10-24T04:10:22.896Z,2664.01642
2022-10-24T04:25:24.769Z,2481.482
2022-10-24T04:40:26.632Z,2312.33873
2022-10-24T04:55:28.442Z,2401.4342
2022-10-24T05:10:30.291Z,2246.43806
2022-10-24T05:25:32.141Z,2147.4364
2022-10-24T05:40:33.991Z,2196.72182
2022-10-24T05:55:35.848Z,2265.42739
2022-10-24T06:10:37.710Z,2163.03521
2022-10-24T06:25:39.633Z,2072.69965
2022-10-24T06:40:41.491Z,2177.0923
2022-10-24T06:52:25.645Z,2290.5988
2022-10-24T07:07:27.496Z,2375.88703
2022-10-24T07:22:31.449Z,1761.99918
2022-10-24T07:37:34.589Z,1086.78071
2022-10-24T07:52:36.450Z,1106.52404
2022-10-24T08:07:38.350Z,1058.45232
2022-10-24T08:22:40.201Z,1578.32794
2022-10-24T08:37:42.095Z,1726.80462
2022-10-24T08:52:44.489Z,1818.18231
2022-10-24T09:07:46.750Z,1862.40494
2022-10-24T09:22:49.011Z,1883.34554
2022-10-24T09:37:51.275Z,1910.19294
2022-10-24T09:52:53.277Z,1923.90574
2022-10-24T10:07:55.104Z,1947.67492
2022-10-24T10:22:56.941Z,1961.93315
2022-10-24T10:37:58.868Z,2000.0005
2022-10-24T10:53:00.692Z,1991.0852
2022-10-24T11:08:02.597Z,2064.71545
2022-10-24T11:23:04.459Z,2005.98852
2022-10-24T11:38:06.400Z,1946.26048
2022-10-24T11:53:08.237Z,1915.65454
2022-10-24T12:08:10.092Z,1969.14084
2022-10-24T12:23:12.002Z,2077.51988
2022-10-24T12:38:13.832Z,2105.26366
2022-10-24T12:53:15.666Z,2161.29083
2022-10-24T13:08:17.519Z,2191.33329
2022-10-24T13:23:19.387Z,2205.76182
2022-10-24T13:53:29.745Z,2216.70853
2022-10-24T14:08:32.770Z,2246.43806
2022-10-24T14:23:34.608Z,2252.10135
2022-10-24T14:38:36.522Z,2252.10135
2022-10-24T14:53:38.376Z,2316.33586
2022-10-24T15:23:42.054Z,2240.80318
2022-10-24T15:38:44.382Z,2063.12598
2022-10-24T15:53:46.213Z,1898.01749
2022-10-24T16:08:48.048Z,1764.31913
2022-10-24T16:38:52.989Z,1538.46203
2022-10-24T16:53:54.819Z,1492.20542
2022-10-24T17:08:56.662Z,1497.20722
2022-10-24T17:23:58.675Z,1678.14702
2022-10-24T17:39:00.569Z,1738.00309
2022-10-24T17:54:02.496Z,1639.14422
2022-10-24T18:09:04.463Z,1599.04584
2022-10-24T18:24:06.298Z,1611.54589
2022-10-24T18:39:08.142Z,1738.00309
2022-10-24T18:54:10.137Z,1735.75179
2022-10-24T19:09:12.117Z,1731.26664
2022-10-24T19:24:13.978Z,1725.6927
2022-10-24T19:39:15.828Z,1921.14745
2022-10-24T19:54:17.897Z,1943.43777
2022-10-24T20:09:19.745Z,1861.11161
2022-10-24T20:24:21.612Z,1583.92484
2022-10-24T20:39:23.442Z,1581.12144
2022-10-24T20:54:25.355Z,1809.58861
2022-10-24T21:09:27.186Z,1833.10583
2022-10-24T21:24:29.034Z,1866.29576
2022-10-24T21:39:30.904Z,1892.65586
2022-10-24T21:54:32.875Z,1921.14745
2022-10-24T22:09:34.742Z,2018.07279
2022-10-24T22:24:36.613Z,2255.89276
2022-10-24T22:39:38.441Z,2334.49528
2022-10-24T22:54:40.241Z,2357.08054
2022-10-24T23:09:42.056Z,2382.22273
2022-10-24T23:24:43.919Z,2363.31621
2022-10-24T23:39:45.747Z,2233.33384
2022-10-24T23:45:04.328Z,2145.71708
